Time;durP1;ratioP1;P1;durP2;ratioP2;P2;SDS_P1;SDS_P2;PMS_P1;PMS_P2;Temp;Humidity;BMP_temperature;BMP_pressure;BME280_temperature;BME280_humidity;BME280_pressure;Samples;Min_cycle;Max_cycle;Signal;HPM_P1;HPM_P2
2021/11/03 01:25:33;;;;;;;1.03;0.97;;;;;;;7.16;71.20;94327.16;4890104;29;20306;-84
2021/11/03 01:29:11;;;;;;;1.20;1.10;;;;;;;7.25;71.00;94326.03;4819157;29;20730;-84
2021/11/03 01:39:04;;;;;;;1.10;1.00;;;;;;;7.54;69.67;94325.03;4804317;29;20210;-84
2021/11/03 01:42:08;;;;;;;2.37;0.83;;;;;;;7.55;69.23;94316.38;4858016;29;20242;-84
2021/11/03 01:48:50;;;;;;;0.83;0.83;;;;;;;7.31;69.97;94302.25;4855424;29;20295;-84
2021/11/03 01:55:04;;;;;;;2.70;1.00;;;;;;;7.32;69.87;94297.91;4808735;29;20582;-84
2021/11/03 01:58:21;;;;;;;1.17;0.90;;;;;;;7.42;69.63;94306.84;4850330;29;20212;-84
2021/11/03 02:14:34;;;;;;;1.33;1.00;;;;;;;7.12;70.83;94246.63;4863248;29;20211;-84
2021/11/03 02:21:32;;;;;;;0.90;0.90;;;;;;;7.18;70.75;94244.09;4888066;28;20267;-84
2021/11/03 02:37:53;;;;;;;3.13;1.00;;;;;;;7.53;69.23;94232.03;4682181;30;20222;-84
2021/11/03 02:58:33;;;;;;;;;;;;;;;;;;;;;
2021/11/03 03:05:40;;;;;;;0.87;0.87;;;;;;;6.47;75.12;94205.06;4906284;29;20696;-84
2021/11/03 03:19:26;;;;;;;;;;;;;;;;;;;;;
2021/11/03 03:25:14;;;;;;;1.13;1.03;;;;;;;6.16;77.46;94164.50;4989932;28;20680;-84
2021/11/03 03:27:44;;;;;;;1.07;1.00;;;;;;;6.17;77.33;94170.38;5010222;28;20207;-84
2021/11/03 03:30:14;;;;;;;0.90;0.90;;;;;;;6.11;77.95;94166.81;5010202;28;20234;-84
2021/11/03 03:36:53;;;;;;;;;;;;;;;;;;;;;
2021/11/03 03:46:25;;;;;;;1.30;1.20;;;;;;;6.55;75.83;94191.31;4948484;28;20299;-84
2021/11/03 03:49:48;;;;;;;2.00;1.13;;;;;;;6.70;74.87;94184.38;4899606;28;20605;-84
2021/11/03 03:52:29;;;;;;;1.20;1.10;;;;;;;6.75;74.72;94187.13;5011762;28;20690;-84
2021/11/03 03:55:19;;;;;;;1.27;1.17;;;;;;;6.74;74.27;94182.22;5011872;28;20207;-84
2021/11/03 03:58:43;;;;;;;1.33;1.23;;;;;;;6.72;74.13;94179.06;5008583;28;20225;-84
2021/11/03 04:12:08;;;;;;;1.20;1.10;;;;;;;6.28;75.85;94169.91;4931407;29;20261;-84
2021/11/03 04:24:00;;;;;;;2.23;1.60;;;;;;;6.20;76.24;94160.59;4989313;28;20195;-84
2021/11/03 04:33:36;;;;;;;1.70;1.60;;;;;;;6.03;77.58;94153.38;4903875;29;20293;-84
2021/11/03 04:40:14;;;;;;;2.07;1.80;;;;;;;6.07;77.46;94136.72;4951296;29;20258;-84
2021/11/03 04:42:49;;;;;;;1.80;1.70;;;;;;;6.09;77.43;94144.97;5012780;28;20573;-84
2021/11/03 04:45:36;;;;;;;3.73;2.10;;;;;;;6.09;77.65;94137.31;5000222;28;20221;-84
2021/11/03 04:48:57;;;;;;;2.70;1.90;;;;;;;6.04;77.89;94135.31;5011790;28;20253;-84
2021/11/03 04:52:18;;;;;;;1.93;1.80;;;;;;;6.04;77.89;94135.31;5012251;28;20551;-84
2021/11/03 04:55:21;;;;;;;2.43;2.23;;;;;;;6.00;77.83;94128.97;5008433;28;20242;-84
2021/11/03 04:57:59;;;;;;;2.20;1.97;;;;;;;5.93;78.92;94123.06;5014640;28;20214;-84
2021/11/03 05:12:03;;;;;;;;;;;;;;;;;;;;;
2021/11/03 05:14:38;;;;;;;2.47;2.27;;;;;;;5.96;79.34;94109.13;4869947;29;20207;-84
2021/11/03 05:17:29;;;;;;;2.60;2.40;;;;;;;6.10;78.80;94106.47;4953217;28;20209;-84
2021/11/03 05:20:19;;;;;;;2.70;2.50;;;;;;;6.06;79.28;94096.81;4953306;29;20232;-84
2021/11/03 05:37:07;;;;;;;3.07;2.80;;;;;;;6.00;80.17;94100.09;4895360;29;20226;-84
2021/11/03 05:40:20;;;;;;;2.90;2.60;;;;;;;6.03;79.77;94107.41;4896582;29;20230;-84
2021/11/03 05:47:01;;;;;;;3.17;2.87;;;;;;;6.05;80.51;94098.56;4978377;28;20226;-84
2021/11/03 05:49:51;;;;;;;3.00;2.70;;;;;;;6.16;79.77;94102.38;5006355;28;20230;-84
2021/11/03 05:52:58;;;;;;;3.37;3.07;;;;;;;6.19;79.59;94102.00;5032182;28;20213;-84
2021/11/03 05:59:02;;;;;;;3.50;2.80;;;;;;;6.39;78.84;94097.81;5032710;28;20205;-84
2021/11/03 06:05:25;;;;;;;6.77;5.07;;;;;;;6.23;78.33;94085.34;4989478;28;20294;-84
2021/11/03 06:12:23;;;;;;;3.17;2.87;;;;;;;6.27;78.52;94085.75;5009962;28;20194;-83
2021/11/03 06:15:32;;;;;;;4.57;3.20;;;;;;;6.05;79.68;94082.44;4982054;28;20205;-83
2021/11/03 06:18:24;;;;;;;4.07;3.33;;;;;;;5.97;80.52;94074.91;5028258;28;20622;-83
2021/11/03 06:21:12;;;;;;;3.60;3.30;;;;;;;6.01;80.32;94076.13;5020282;28;20258;-83
2021/11/03 06:24:01;;;;;;;3.40;3.10;;;;;;;6.09;80.21;94061.47;5012347;28;20203;-84
2021/11/03 06:27:41;;;;;;;;;;;;;;;;;;;;;
2021/11/03 06:53:22;;;;;;;3.83;3.30;;;;;;;6.55;80.23;94056.59;5010280;28;20684;-83
2021/11/03 07:09:31;;;;;;;4.30;3.63;;;;;;;7.20;77.53;94057.06;4829012;29;20230;-83
2021/11/03 07:12:54;;;;;;;3.53;3.23;;;;;;;7.32;76.98;94055.50;4951734;28;20700;-83
2021/11/03 07:36:16;;;;;;;3.53;3.03;;;;;;;7.13;78.10;94043.44;4984576;28;20521;-84
2021/11/03 07:39:52;;;;;;;4.47;3.43;;;;;;;7.06;78.84;94032.44;4907616;29;21043;-84
2021/11/03 07:43:24;;;;;;;3.57;3.17;;;;;;;7.05;79.09;94030.84;4929128;28;20230;-84
2021/11/03 07:46:36;;;;;;;3.60;3.10;;;;;;;7.13;78.55;94030.66;4960831;28;20225;-83
2021/11/03 07:52:22;;;;;;;3.30;3.00;;;;;;;7.51;76.98;94018.13;4969266;28;20238;-83
2021/11/03 07:59:00;;;;;;;3.13;2.80;;;;;;;7.49;76.79;94036.25;4980688;28;20216;-84
2021/11/03 08:53:44;;;;;;;3.13;2.37;;;;;;;7.88;74.50;93996.25;4822544;29;20270;-83
2021/11/03 09:10:45;;;;;;;2.70;2.50;;;;;;;8.33;72.54;93986.91;4801474;29;20231;-83
2021/11/03 09:14:15;;;;;;;3.07;2.60;;;;;;;8.27;72.71;93980.03;4935725;29;20622;-84
2021/11/03 09:57:26;;;;;;;3.20;2.20;;;;;;;8.98;71.11;93934.53;4801148;29;20221;-83
2021/11/03 10:03:48;;;;;;;6.57;2.23;;;;;;;9.02;71.00;93926.44;4990534;28;20250;-83
2021/11/03 10:10:22;;;;;;;7.00;2.07;;;;;;;9.11;70.91;93925.97;5032389;28;20335;-83
2021/11/03 10:12:58;;;;;;;3.30;2.27;;;;;;;9.11;71.02;93922.59;5006427;28;20202;-84
2021/11/03 10:15:27;;;;;;;2.30;1.80;;;;;;;9.08;71.08;93928.94;5031540;28;20660;-83
2021/11/03 10:22:05;;;;;;;6.37;2.00;;;;;;;9.17;71.01;93914.88;4989696;28;20220;-84
2021/11/03 10:24:47;;;;;;;2.83;1.90;;;;;;;9.29;70.48;93899.56;4989114;28;20650;-84
2021/11/03 10:27:20;;;;;;;3.00;2.00;;;;;;;9.21;70.03;93905.75;4974082;28;20290;-84
2021/11/03 10:29:52;;;;;;;3.70;1.80;;;;;;;9.26;70.39;93894.84;5015761;28;20234;-84
2021/11/03 10:32:25;;;;;;;1.90;1.70;;;;;;;9.17;70.36;93898.69;5031315;28;20209;-84
2021/11/03 10:35:02;;;;;;;3.80;1.93;;;;;;;9.19;70.36;93902.63;5031306;28;20210;-83
2021/11/03 10:37:37;;;;;;;2.20;1.97;;;;;;;9.25;69.92;93899.19;5030984;28;20202;-84
2021/11/03 10:40:21;;;;;;;4.03;1.80;;;;;;;9.21;69.20;93887.00;5029774;28;20303;-83
2021/11/03 10:42:53;;;;;;;2.67;1.87;;;;;;;9.13;68.86;93895.75;5031383;28;20236;-84
2021/11/03 10:45:27;;;;;;;3.07;1.63;;;;;;;9.26;69.23;93880.22;5030546;28;20222;-84
2021/11/03 10:48:10;;;;;;;2.00;1.80;;;;;;;9.25;69.68;93878.66;5031025;28;20203;-84
2021/11/03 10:50:40;;;;;;;4.23;2.00;;;;;;;9.38;69.41;93887.25;5030036;28;20229;-83
2021/11/03 10:53:19;;;;;;;3.63;1.90;;;;;;;9.41;69.28;93885.06;5031068;28;20202;-83
2021/11/03 10:55:50;;;;;;;2.23;1.73;;;;;;;9.38;69.37;93882.91;5030531;28;20569;-84
2021/11/03 10:58:27;;;;;;;6.33;2.00;;;;;;;9.40;69.40;93892.97;5030111;28;20206;-84
2021/11/03 11:01:06;;;;;;;2.20;1.67;;;;;;;9.38;69.34;93889.81;5030705;28;20283;-84
2021/11/03 11:03:37;;;;;;;3.83;1.83;;;;;;;9.38;69.06;93892.41;5030592;28;20768;-84
2021/11/03 11:06:18;;;;;;;2.37;1.80;;;;;;;9.40;69.17;93887.84;5030345;28;20361;-84
2021/11/03 11:08:57;;;;;;;3.00;2.03;;;;;;;9.41;69.62;93891.97;5030930;28;20213;-83
2021/11/03 11:15:13;;;;;;;;;;;;;;;;;;;;;
2021/11/03 11:17:59;;;;;;;2.50;2.00;;;;;;;9.48;69.14;93885.00;4870269;29;20210;-84
2021/11/03 11:21:16;;;;;;;;;;;;;;;;;;;;;
2021/11/03 11:27:43;;;;;;;2.17;1.97;;;;;;;9.43;69.14;93841.94;4972640;28;20203;-84
2021/11/03 11:31:14;;;;;;;;;;;;;;;;;;;;;
2021/11/03 11:34:31;;;;;;;2.47;2.10;;;;;;;9.54;68.85;93848.19;4971802;28;20203;-84
2021/11/03 11:41:42;;;;;;;3.50;2.43;;;;;;;9.79;68.55;93838.66;5027710;23;20284;-84
2021/11/03 11:50:55;;;;;;;3.13;2.17;;;;;;;9.70;68.24;93840.69;4987434;28;20314;-84
2021/11/03 12:50:46;;;;;;;8.03;3.90;;;;;;;10.25;64.50;93763.53;4887755;29;20266;-84
2021/11/03 13:07:00;;;;;;;2.13;1.93;;;;;;;10.46;64.91;93736.53;4825708;29;20214;-84
2021/11/03 13:09:44;;;;;;;2.30;2.10;;;;;;;10.47;65.01;93735.53;4929409;28;20232;-84
2021/11/03 13:12:46;;;;;;;2.00;1.80;;;;;;;10.48;65.59;93744.81;5038177;28;20220;-84
2021/11/03 13:15:54;;;;;;;2.10;1.90;;;;;;;10.54;65.46;93743.94;5052792;28;20201;-84
2021/11/03 13:22:16;;;;;;;2.33;1.83;;;;;;;10.67;65.38;93768.69;5042879;28;20201;-84
2021/11/03 13:25:51;;;;;;;;;;;;;;;;;;;;;
2021/11/03 13:39:16;;;;;;;2.73;1.90;;;;;;;10.70;65.50;93758.72;4980430;28;20940;-84
2021/11/03 13:46:10;;;;;;;3.80;2.40;;;;;;;10.72;65.50;93763.66;4972447;28;20367;-84
2021/11/03 13:49:23;;;;;;;3.20;1.90;;;;;;;10.72;65.36;93769.59;4984953;28;20710;-84
2021/11/03 13:52:54;;;;;;;3.10;1.93;;;;;;;10.81;65.91;93782.91;4989759;28;20862;-84
2021/11/03 14:09:36;;;;;;;4.10;2.20;;;;;;;10.69;67.11;93849.03;4814062;29;20219;-84
2021/11/03 14:16:12;;;;;;;6.30;3.20;;;;;;;10.50;72.39;93850.09;4817930;29;20207;-84
2021/11/03 15:25:37;;;;;;;6.40;4.20;;;;;;;9.39;76.77;93927.34;4912800;29;20269;-85
2021/11/03 15:28:06;;;;;;;4.63;4.07;;;;;;;9.46;76.31;93926.28;4942567;28;20202;-85
2021/11/03 15:30:32;;;;;;;4.53;3.87;;;;;;;9.47;75.99;93922.72;4991820;28;20230;-85
2021/11/03 15:33:00;;;;;;;5.30;4.10;;;;;;;9.43;76.30;93916.44;4991089;28;20203;-85
2021/11/03 15:35:28;;;;;;;4.50;4.10;;;;;;;9.45;76.17;93908.53;4990721;28;20264;-85
2021/11/03 15:37:56;;;;;;;4.57;4.10;;;;;;;9.49;76.19;93919.94;4991330;28;20591;-84
2021/11/03 15:40:26;;;;;;;4.50;4.10;;;;;;;9.49;76.09;93930.22;4990726;28;20714;-84
2021/11/03 15:42:54;;;;;;;5.07;4.13;;;;;;;9.50;76.15;93942.88;4990473;28;20227;-85
2021/11/03 15:45:31;;;;;;;4.97;4.47;;;;;;;9.54;75.94;93938.88;4990440;28;20254;-86
2021/11/03 15:47:58;;;;;;;5.53;4.20;;;;;;;9.55;76.52;93934.53;4990793;28;20207;-84
2021/11/03 15:50:29;;;;;;;5.67;4.13;;;;;;;9.51;76.47;93935.94;4991052;28;20223;-85
2021/11/03 15:52:57;;;;;;;4.50;4.10;;;;;;;9.52;76.74;93934.94;4991021;28;21175;-85
2021/11/03 15:55:26;;;;;;;4.40;4.00;;;;;;;9.58;76.33;93947.75;4992884;28;20208;-84
2021/11/03 15:57:54;;;;;;;4.87;4.47;;;;;;;9.61;76.39;93952.47;4995917;28;20211;-85
2021/11/03 16:00:26;;;;;;;4.97;4.47;;;;;;;9.58;76.43;93946.97;4995387;28;20227;-85
2021/11/03 16:02:58;;;;;;;10.50;4.90;;;;;;;9.58;76.48;93954.66;4993312;28;20208;-85
2021/11/03 16:05:27;;;;;;;5.90;4.13;;;;;;;9.57;76.87;93958.22;4993731;28;20208;-85
2021/11/03 16:07:54;;;;;;;4.63;4.23;;;;;;;9.52;77.30;93969.13;4993851;28;20208;-85
2021/11/03 16:10:23;;;;;;;5.10;4.40;;;;;;;9.53;77.05;93973.28;4994036;28;20227;-85
2021/11/03 16:12:50;;;;;;;5.87;4.93;;;;;;;9.56;77.27;93969.50;4994054;28;20213;-85
2021/11/03 16:15:17;;;;;;;4.27;3.97;;;;;;;9.56;77.40;93967.72;4993923;28;20222;-85
2021/11/03 16:17:45;;;;;;;4.60;4.07;;;;;;;9.52;77.92;93981.97;4991847;28;20575;-85
2021/11/03 16:20:12;;;;;;;4.93;4.53;;;;;;;9.48;77.77;93995.44;4991077;28;20714;-84
2021/11/03 16:22:42;;;;;;;4.67;4.23;;;;;;;9.49;78.29;94002.94;4992278;28;20199;-84
2021/11/03 16:25:15;;;;;;;4.47;4.07;;;;;;;9.50;78.52;93998.59;4991507;28;20223;-84
2021/11/03 16:27:41;;;;;;;4.93;4.47;;;;;;;9.56;77.67;94018.31;4991342;28;20210;-85
2021/11/03 16:30:08;;;;;;;4.50;4.10;;;;;;;9.50;78.58;94021.72;4991385;28;20220;-84
2021/11/03 16:32:34;;;;;;;4.60;4.20;;;;;;;9.49;78.36;94020.13;4991089;28;20204;-84
2021/11/03 16:35:03;;;;;;;4.57;4.17;;;;;;;9.55;78.47;94021.88;4991588;28;20230;-84
2021/11/03 16:37:29;;;;;;;5.73;4.63;;;;;;;9.59;77.96;94036.69;4991729;28;20827;-85
2021/11/03 16:39:56;;;;;;;5.40;4.27;;;;;;;9.57;77.83;94046.38;4991316;28;20289;-84
2021/11/03 16:42:33;;;;;;;4.60;4.20;;;;;;;9.60;78.20;94048.53;4992270;28;20694;-85
2021/11/03 16:45:18;;;;;;;4.73;4.30;;;;;;;9.63;78.27;94042.94;4990657;28;20649;-84
2021/11/03 16:47:46;;;;;;;4.60;4.20;;;;;;;9.59;78.41;94049.53;4994556;28;20204;-84
2021/11/03 16:50:25;;;;;;;4.73;4.33;;;;;;;9.50;78.68;94052.53;4994581;28;20223;-84
2021/11/03 16:53:47;;;;;;;;;;;;;;;;;;;;;
2021/11/03 16:56:18;;;;;;;5.30;4.80;;;;;;;9.53;79.05;94047.00;4992400;28;20203;-84
2021/11/03 16:58:45;;;;;;;6.47;4.77;;;;;;;9.48;79.26;94046.81;4994671;28;20298;-84
2021/11/03 17:02:03;;;;;;;5.13;4.70;;;;;;;9.47;79.15;94033.19;4994612;28;20311;-84
2021/11/03 17:04:38;;;;;;;5.60;5.10;;;;;;;9.41;79.90;94026.31;4994284;28;20270;-84
2021/11/03 17:10:13;;;;;;;4.90;4.50;;;;;;;9.45;79.94;94042.88;4983508;28;20273;-84
2021/11/03 17:12:41;;;;;;;6.00;5.40;;;;;;;9.43;80.17;94054.38;4974718;28;20221;-84
2021/11/03 17:15:30;;;;;;;5.40;4.90;;;;;;;9.41;80.27;94067.44;4974643;28;20671;-84
2021/11/03 17:18:13;;;;;;;5.63;5.13;;;;;;;9.44;80.01;94082.41;4974511;28;20263;-85
2021/11/03 17:20:50;;;;;;;6.63;5.87;;;;;;;9.42;80.22;94076.72;4974195;28;20227;-84
2021/11/03 17:23:24;;;;;;;6.00;5.50;;;;;;;9.45;79.93;94091.69;4974346;28;20203;-84
2021/11/03 17:26:03;;;;;;;5.77;5.27;;;;;;;9.54;79.89;94093.03;4974665;28;20208;-84
2021/11/03 17:28:40;;;;;;;5.73;5.23;;;;;;;9.56;79.47;94088.47;4974762;28;20208;-85
2021/11/03 17:31:17;;;;;;;5.20;4.80;;;;;;;9.60;79.36;94101.69;4974603;28;20230;-84
2021/11/03 17:33:44;;;;;;;5.90;5.30;;;;;;;9.61;79.30;94103.28;4974309;28;20203;-84
2021/11/03 17:36:20;;;;;;;5.80;5.30;;;;;;;9.65;79.50;94102.63;4974961;28;20203;-85
2021/11/03 17:38:48;;;;;;;7.47;5.40;;;;;;;9.58;79.62;94108.81;4975280;28;20680;-85
2021/11/03 17:41:25;;;;;;;6.67;5.30;;;;;;;9.53;80.52;94118.91;4975721;28;20248;-85
2021/11/03 17:43:58;;;;;;;5.87;5.07;;;;;;;9.54;80.80;94118.72;4975907;28;20224;-85
2021/11/03 17:46:29;;;;;;;6.53;5.47;;;;;;;9.58;80.07;94117.31;4975224;28;20389;-85
2021/11/03 17:48:59;;;;;;;5.53;4.93;;;;;;;9.56;80.32;94110.81;4975846;28;20204;-86
2021/11/03 17:51:27;;;;;;;5.50;5.00;;;;;;;9.61;80.28;94108.41;4975481;28;20252;-85
2021/11/03 17:53:58;;;;;;;7.43;5.53;;;;;;;9.63;80.60;94112.31;4976406;28;20263;-86
2021/11/03 17:56:30;;;;;;;6.10;5.20;;;;;;;9.65;80.23;94115.47;4977271;28;20215;-85
2021/11/03 17:58:59;;;;;;;5.37;4.97;;;;;;;9.56;81.16;94113.38;4992934;28;20207;-85
2021/11/03 18:01:39;;;;;;;5.87;5.27;;;;;;;9.64;80.26;94116.47;4994766;28;20269;-85
2021/11/03 18:04:09;;;;;;;5.33;4.83;;;;;;;9.67;80.59;94126.34;4994180;28;20226;-85
2021/11/03 18:06:44;;;;;;;5.13;4.63;;;;;;;9.64;80.54;94131.09;4993673;28;20211;-85
2021/11/03 18:09:21;;;;;;;5.43;4.93;;;;;;;9.64;80.65;94134.47;4994700;28;20227;-85
2021/11/03 18:12:04;;;;;;;5.20;4.70;;;;;;;9.63;80.91;94124.38;4993806;28;20195;-85
2021/11/03 18:14:38;;;;;;;5.17;4.77;;;;;;;9.63;80.96;94129.53;4992305;28;20726;-85
2021/11/03 18:17:18;;;;;;;5.43;5.00;;;;;;;9.67;80.86;94134.06;4994721;28;20739;-85
2021/11/03 18:20:05;;;;;;;5.80;5.30;;;;;;;9.73;80.46;94132.44;4994549;28;20239;-85
2021/11/03 18:22:34;;;;;;;5.93;5.07;;;;;;;9.64;81.07;94139.59;4994055;28;20321;-85
2021/11/03 18:25:05;;;;;;;5.57;5.07;;;;;;;9.62;81.25;94133.88;4992392;28;20227;-85
2021/11/03 18:27:32;;;;;;;5.40;4.60;;;;;;;9.70;80.98;94132.84;4993731;28;20215;-85
2021/11/03 18:30:04;;;;;;;5.20;4.70;;;;;;;9.69;80.96;94139.78;4994191;28;20236;-85
2021/11/03 18:32:31;;;;;;;5.17;4.70;;;;;;;9.66;81.25;94135.03;4994143;28;20246;-85
2021/11/03 18:34:58;;;;;;;5.80;4.70;;;;;;;9.69;81.00;94126.94;4994019;28;20294;-86
2021/11/03 18:37:25;;;;;;;4.70;4.30;;;;;;;9.64;81.21;94136.25;4994071;28;20207;-84
2021/11/03 18:39:58;;;;;;;4.93;4.53;;;;;;;9.59;81.93;94149.72;4996432;28;20247;-85
2021/11/03 18:42:28;;;;;;;4.83;4.43;;;;;;;9.64;81.54;94149.09;5005869;28;20483;-84
2021/11/03 18:44:59;;;;;;;5.13;4.73;;;;;;;9.60;82.42;94141.03;5007086;28;20235;-85
2021/11/03 18:47:27;;;;;;;5.03;4.53;;;;;;;9.64;82.07;94142.16;5001360;28;20222;-85
2021/11/03 18:49:57;;;;;;;4.47;4.07;;;;;;;9.72;81.35;94148.06;5001783;28;20292;-85
2021/11/03 18:52:31;;;;;;;5.07;4.57;;;;;;;9.72;81.80;94151.44;5000749;28;20196;-84
2021/11/03 18:55:02;;;;;;;4.67;4.27;;;;;;;9.73;81.71;94147.09;5001262;28;20211;-85
2021/11/03 18:57:37;;;;;;;5.30;4.80;;;;;;;9.67;82.01;94149.47;5000506;28;20202;-85
2021/11/03 19:00:13;;;;;;;4.77;4.33;;;;;;;9.66;83.12;94144.53;5000404;28;20219;-84
2021/11/03 19:02:40;;;;;;;5.47;4.83;;;;;;;9.64;83.54;94155.00;4999025;28;20205;-84
2021/11/03 19:05:19;;;;;;;4.37;4.07;;;;;;;9.67;83.17;94152.03;4998882;28;20223;-85
2021/11/03 19:07:49;;;;;;;5.30;4.80;;;;;;;9.70;83.22;94155.97;4999805;28;20207;-85
2021/11/03 19:10:20;;;;;;;5.23;4.67;;;;;;;9.71;83.65;94155.00;4999398;28;20258;-84
2021/11/03 19:12:50;;;;;;;5.27;4.77;;;;;;;9.69;84.69;94164.69;5000151;28;20298;-84
2021/11/03 19:15:21;;;;;;;5.20;4.80;;;;;;;9.70;84.29;94167.06;4999872;28;20196;-85
2021/11/03 19:17:47;;;;;;;5.57;5.07;;;;;;;9.71;84.66;94167.84;4999930;28;20200;-84
2021/11/03 19:20:15;;;;;;;5.60;5.10;;;;;;;9.68;84.73;94173.38;4999439;28;20235;-85
2021/11/03 19:22:45;;;;;;;4.90;4.50;;;;;;;9.61;84.73;94170.88;4999789;28;20210;-84
2021/11/03 19:25:18;;;;;;;5.23;3.80;;;;;;;9.51;85.07;94174.84;4999454;28;20227;-85
2021/11/03 19:27:45;;;;;;;3.63;3.30;;;;;;;9.49;83.63;94171.69;4999522;28;20211;-84
2021/11/03 19:30:16;;;;;;;3.50;3.20;;;;;;;9.46;83.84;94174.66;4999239;28;20228;-85
2021/11/03 19:32:43;;;;;;;3.50;3.20;;;;;;;9.47;83.57;94176.25;4998765;28;20199;-84
2021/11/03 19:35:10;;;;;;;3.27;2.93;;;;;;;9.47;83.60;94171.91;4998466;28;20598;-84
2021/11/03 19:37:39;;;;;;;2.93;2.73;;;;;;;9.48;83.71;94182.97;4998360;28;20802;-84
2021/11/03 19:40:14;;;;;;;3.00;2.70;;;;;;;9.48;83.47;94177.81;4997652;28;20230;-84
2021/11/03 19:42:41;;;;;;;2.70;2.50;;;;;;;9.52;83.56;94179.00;4997740;28;20207;-84
2021/11/03 19:45:07;;;;;;;3.03;2.70;;;;;;;9.50;83.67;94171.50;4996780;28;20230;-84
2021/11/03 19:47:37;;;;;;;2.57;2.33;;;;;;;9.44;83.01;94179.22;4997187;28;20203;-85
2021/11/03 19:50:05;;;;;;;2.30;2.10;;;;;;;9.40;83.33;94171.16;4997310;28;20231;-84
2021/11/03 19:52:32;;;;;;;3.00;2.17;;;;;;;9.34;83.12;94175.31;4996345;28;20207;-85
2021/11/03 19:54:59;;;;;;;3.07;2.03;;;;;;;9.27;83.77;94171.97;4997041;28;20215;-84
2021/11/03 19:57:29;;;;;;;2.57;2.37;;;;;;;9.27;83.99;94163.47;4996747;28;20200;-84
2021/11/03 19:59:57;;;;;;;2.00;1.90;;;;;;;9.21;84.59;94172.00;4997637;28;20261;-85
2021/11/03 20:02:27;;;;;;;1.80;1.70;;;;;;;9.16;84.24;94185.44;4997407;28;20239;-85
2021/11/03 20:04:56;;;;;;;1.80;1.70;;;;;;;9.14;83.72;94191.78;4996194;28;20593;-84
2021/11/03 20:07:26;;;;;;;1.80;1.70;;;;;;;9.09;84.52;94196.72;4996516;28;20615;-84
2021/11/03 20:09:54;;;;;;;2.50;1.60;;;;;;;9.07;84.87;94198.69;4996325;28;20726;-84
2021/11/03 20:12:21;;;;;;;2.07;1.63;;;;;;;9.11;84.54;94190.41;4997032;28;20209;-84
2021/11/03 20:14:49;;;;;;;1.70;1.60;;;;;;;9.14;84.43;94184.06;4996941;28;20211;-85
2021/11/03 20:17:24;;;;;;;1.60;1.50;;;;;;;9.14;84.59;94187.44;4996871;28;20208;-84
2021/11/03 20:19:50;;;;;;;1.50;1.40;;;;;;;9.10;84.69;94193.16;4996665;28;20313;-84
2021/11/03 20:22:22;;;;;;;1.90;1.50;;;;;;;9.09;84.45;94191.59;4997987;28;20218;-84
2021/11/03 20:24:52;;;;;;;1.93;1.73;;;;;;;9.03;84.84;94184.72;5000266;28;20234;-85
2021/11/03 20:27:22;;;;;;;1.47;1.37;;;;;;;8.97;85.49;94176.81;4999971;28;20219;-84
2021/11/03 20:29:51;;;;;;;1.60;1.50;;;;;;;8.95;84.92;94172.88;5000907;28;20706;-84
2021/11/03 20:32:22;;;;;;;1.60;1.50;;;;;;;9.04;84.86;94168.31;5001130;28;20207;-84
2021/11/03 20:34:49;;;;;;;1.53;1.40;;;;;;;9.07;84.61;94165.31;5000831;28;20227;-85
2021/11/03 20:37:17;;;;;;;2.80;1.43;;;;;;;9.12;84.21;94165.50;5000384;28;20215;-84
2021/11/03 20:39:45;;;;;;;1.40;1.30;;;;;;;9.08;84.21;94174.59;5000318;28;20223;-85
2021/11/03 20:42:34;;;;;;;1.67;1.57;;;;;;;9.08;84.17;94167.69;4999886;28;20207;-84
2021/11/03 20:45:14;;;;;;;1.50;1.40;;;;;;;9.11;83.78;94166.50;4999938;28;20673;-83
2021/11/03 20:47:42;;;;;;;1.47;1.37;;;;;;;9.14;83.46;94161.75;4999532;28;20207;-84
2021/11/03 20:50:11;;;;;;;1.50;1.40;;;;;;;9.18;83.55;94165.50;5000281;28;20230;-84
2021/11/03 20:52:39;;;;;;;1.73;1.63;;;;;;;9.22;83.07;94164.13;4998950;28;20254;-84
2021/11/03 20:55:08;;;;;;;2.00;1.60;;;;;;;9.23;83.00;94162.34;5000438;28;20219;-84
2021/11/03 20:57:36;;;;;;;3.07;1.33;;;;;;;9.18;82.82;94157.78;4999669;28;20207;-84
2021/11/03 21:00:05;;;;;;;1.83;1.70;;;;;;;9.16;83.30;94157.22;4999454;28;20231;-84
2021/11/03 21:02:33;;;;;;;1.50;1.40;;;;;;;9.11;83.19;94164.72;4999793;28;20203;-84
2021/11/03 21:05:02;;;;;;;1.83;1.73;;;;;;;9.08;82.90;94170.25;4999681;28;20230;-84
2021/11/03 21:07:29;;;;;;;1.47;1.37;;;;;;;8.96;82.87;94175.22;4999619;28;20261;-84
2021/11/03 21:09:56;;;;;;;1.40;1.30;;;;;;;8.82;83.94;94181.38;4999249;28;20661;-84
2021/11/03 21:12:22;;;;;;;1.73;1.30;;;;;;;8.77;84.44;94193.22;4998180;28;20204;-84
2021/11/03 21:14:48;;;;;;;1.37;1.27;;;;;;;8.83;84.26;94190.66;4998912;28;20209;-84
2021/11/03 21:17:15;;;;;;;1.40;1.30;;;;;;;8.90;83.58;94196.56;5000889;28;20267;-84
2021/11/03 21:19:43;;;;;;;1.40;1.30;;;;;;;8.90;82.87;94195.75;5012869;28;20223;-84
2021/11/03 21:22:09;;;;;;;2.13;1.30;;;;;;;8.94;82.62;94177.22;5007520;28;20223;-85
2021/11/03 21:24:36;;;;;;;1.60;1.50;;;;;;;8.98;83.29;94191.22;5005528;28;20222;-84
2021/11/03 21:27:02;;;;;;;1.50;1.40;;;;;;;9.02;82.89;94189.06;5005161;28;20746;-84
2021/11/03 21:29:29;;;;;;;1.50;1.40;;;;;;;9.06;82.79;94189.41;5004869;28;20875;-85
2021/11/03 21:31:55;;;;;;;4.50;4.10;;;;;;;9.09;81.97;94189.00;5005501;28;20199;-84
2021/11/03 21:34:21;;;;;;;4.60;4.20;;;;;;;9.10;82.49;94198.28;5003905;28;20215;-84
2021/11/03 21:36:49;;;;;;;3.30;3.00;;;;;;;9.10;82.61;94195.72;5004717;28;20262;-84
2021/11/03 21:39:16;;;;;;;2.00;1.80;;;;;;;9.04;83.17;94192.22;5004312;28;20203;-84
2021/11/03 21:41:42;;;;;;;1.80;1.50;;;;;;;9.07;82.14;94185.84;5003136;28;20200;-84
2021/11/03 21:44:09;;;;;;;1.77;1.43;;;;;;;9.08;82.89;94177.16;5003191;28;20303;-85
2021/11/03 21:46:36;;;;;;;1.67;1.57;;;;;;;9.10;82.88;94170.84;5002921;28;20244;-84
2021/11/03 21:49:03;;;;;;;1.60;1.50;;;;;;;9.13;82.88;94159.38;5002411;28;20210;-85
2021/11/03 21:51:29;;;;;;;2.00;1.60;;;;;;;9.16;82.25;94157.22;5002959;28;20638;-84
2021/11/03 21:53:57;;;;;;;1.53;1.30;;;;;;;9.15;82.06;94154.84;5002124;28;20641;-85
2021/11/03 21:56:24;;;;;;;1.50;1.40;;;;;;;9.14;81.74;94155.84;5001541;28;20208;-84
2021/11/03 21:58:50;;;;;;;2.03;1.27;;;;;;;9.14;81.54;94160.97;5001558;28;20207;-85
2021/11/03 22:01:16;;;;;;;20.90;17.10;;;;;;;9.17;81.13;94152.88;5001367;28;20290;-84
2021/11/03 22:03:43;;;;;;;10.77;9.17;;;;;;;9.15;81.74;94157.41;4999855;28;20207;-84
2021/11/03 22:06:10;;;;;;;3.27;2.93;;;;;;;9.13;82.49;94152.47;4998168;28;20251;-84
2021/11/03 22:08:36;;;;;;;2.10;1.90;;;;;;;9.14;81.60;94148.91;4998630;28;20827;-85
2021/11/03 22:11:04;;;;;;;1.80;1.70;;;;;;;9.18;81.66;94151.88;4998770;28;20223;-84
2021/11/03 22:13:31;;;;;;;1.40;1.30;;;;;;;9.15;81.05;94163.34;4997600;28;20707;-85
2021/11/03 22:15:58;;;;;;;1.30;1.10;;;;;;;9.16;80.89;94159.78;4998812;28;20212;-84
2021/11/03 22:18:27;;;;;;;1.40;1.27;;;;;;;9.18;81.21;94162.94;4998260;28;20676;-84
2021/11/03 22:20:54;;;;;;;1.40;1.20;;;;;;;9.16;81.23;94161.56;4997982;28;20258;-84
2021/11/03 22:23:21;;;;;;;1.57;1.40;;;;;;;9.21;80.74;94165.09;4997731;28;20698;-84
2021/11/03 22:25:47;;;;;;;1.50;1.40;;;;;;;9.19;81.13;94163.72;4998294;28;20227;-85
2021/11/03 22:28:18;;;;;;;5.30;4.57;;;;;;;9.19;81.01;94159.38;4997533;28;20495;-84
2021/11/03 22:30:45;;;;;;;6.43;3.70;;;;;;;9.20;80.68;94158.38;4997768;28;20224;-85
2021/11/03 22:33:11;;;;;;;2.67;2.20;;;;;;;9.19;80.54;94154.25;4998136;28;20199;-84
2021/11/03 22:35:38;;;;;;;1.40;1.30;;;;;;;9.15;80.34;94149.72;4997345;28;20266;-84
2021/11/03 22:38:11;;;;;;;1.80;1.30;;;;;;;9.15;80.63;94147.13;4997630;28;20203;-84
2021/11/03 22:40:37;;;;;;;1.13;1.03;;;;;;;9.16;80.45;94141.00;4998116;28;20602;-84
2021/11/03 22:43:04;;;;;;;1.73;1.10;;;;;;;9.19;79.78;94138.84;4997776;28;20204;-85
2021/11/03 22:45:36;;;;;;;1.17;1.07;;;;;;;9.19;80.24;94138.03;4996993;28;20264;-84
2021/11/03 22:48:03;;;;;;;1.00;1.00;;;;;;;9.16;80.23;94135.88;4997335;28;20203;-84
2021/11/03 22:50:32;;;;;;;2.00;1.00;;;;;;;9.13;80.10;94129.38;4997448;28;20227;-84
2021/11/03 22:53:02;;;;;;;1.00;1.00;;;;;;;9.10;80.10;94116.94;4998198;28;20203;-84
2021/11/03 22:55:40;;;;;;;1.23;1.13;;;;;;;9.12;79.81;94116.72;4998072;28;20203;-84
2021/11/03 23:01:09;;;;;;;1.37;1.27;;;;;;;9.13;80.42;94111.41;4994597;28;20235;-84
2021/11/03 23:06:22;;;;;;;1.83;1.40;;;;;;;9.11;80.40;94110.81;4980037;28;20255;-84
2021/11/03 23:08:51;;;;;;;1.23;1.20;;;;;;;9.12;80.20;94109.03;4996249;28;20215;-84
2021/11/03 23:11:21;;;;;;;1.87;1.10;;;;;;;9.06;80.84;94120.88;4995966;28;20220;-84
2021/11/03 23:14:01;;;;;;;1.83;1.60;;;;;;;9.10;82.10;94116.94;4996759;28;20210;-84
2021/11/03 23:16:29;;;;;;;1.20;1.10;;;;;;;9.11;81.74;94121.06;4997083;28;20230;-84